Time;durP1;ratioP1;P1;durP2;ratioP2;P2;SDS_P1;SDS_P2;PMS_P1;PMS_P2;Temp;Humidity;BMP_temperature;BMP_pressure;BME280_temperature;BME280_humidity;BME280_pressure;Samples;Min_cycle;Max_cycle;Signal;HPM_P1;HPM_P2
2021/09/12 00:00:20;;;;;;;3.37;2.80;;;;;;;;;;5118804;28;20209;-65
2021/09/12 00:02:48;;;;;;;4.93;2.97;;;;;;;;;;5117049;27;20204;-65
2021/09/12 00:05:17;;;;;;;2.60;2.40;;;;;;;;;;5107077;28;20254;-63
2021/09/12 00:07:46;;;;;;;2.40;2.20;;;;;;;;;;5117829;28;20204;-63
2021/09/12 00:10:14;;;;;;;4.17;2.40;;;;;;;;;;5118486;28;20288;-65
2021/09/12 00:12:42;;;;;;;4.93;3.00;;;;;;;;;;5110629;28;20287;-63
2021/09/12 00:15:11;;;;;;;2.43;2.23;;;;;;;;;;5101473;28;20574;-63
2021/09/12 00:17:39;;;;;;;3.23;2.80;;;;;;;;;;5111902;28;20252;-63
2021/09/12 00:20:08;;;;;;;2.60;2.20;;;;;;;;;;5118245;28;20674;-63
2021/09/12 00:22:36;;;;;;;2.57;2.37;;;;;;;;;;5111360;28;20637;-63
2021/09/12 00:25:06;;;;;;;2.77;2.57;;;;;;;;;;5115855;27;20234;-63
2021/09/12 00:27:35;;;;;;;4.37;2.60;;;;;;;;;;5118239;28;20315;-63
2021/09/12 00:30:03;;;;;;;3.03;2.70;;;;;;;;;;5105558;28;20211;-65
2021/09/12 00:32:32;;;;;;;5.23;2.23;;;;;;;;;;5115658;28;20203;-63
2021/09/12 00:35:00;;;;;;;4.03;2.60;;;;;;;;;;5112820;28;20572;-63
2021/09/12 00:37:28;;;;;;;2.77;2.07;;;;;;;;;;5118110;28;20635;-64
2021/09/12 00:39:56;;;;;;;3.13;2.30;;;;;;;;;;5107802;28;20264;-65
2021/09/12 00:42:25;;;;;;;2.67;2.47;;;;;;;;;;5114988;28;20635;-65
2021/09/12 00:44:54;;;;;;;3.07;2.30;;;;;;;;;;5114336;28;20592;-62
2021/09/12 00:47:22;;;;;;;4.10;2.43;;;;;;;;;;5115709;28;20239;-62
2021/09/12 00:49:50;;;;;;;2.03;1.87;;;;;;;;;;5115420;28;20747;-63
2021/09/12 00:52:18;;;;;;;4.60;2.70;;;;;;;;;;5107850;28;20465;-63
2021/09/12 00:54:47;;;;;;;2.57;2.27;;;;;;;;;;5115125;28;20225;-63
2021/09/12 00:57:15;;;;;;;2.43;2.13;;;;;;;;;;5109377;28;20763;-63
2021/09/12 00:59:45;;;;;;;3.10;2.03;;;;;;;;;;5114451;28;20206;-63
2021/09/12 01:02:13;;;;;;;2.40;1.90;;;;;;;;;;5117245;28;20282;-63
2021/09/12 01:04:41;;;;;;;2.83;2.40;;;;;;;;;;5116762;28;20592;-63
2021/09/12 01:07:09;;;;;;;2.87;2.07;;;;;;;;;;5118068;28;20234;-63
2021/09/12 01:09:38;;;;;;;2.27;2.07;;;;;;;;;;5103888;28;20283;-63
2021/09/12 01:12:07;;;;;;;3.20;1.90;;;;;;;;;;5117522;28;20241;-63
2021/09/12 01:14:35;;;;;;;3.23;2.17;;;;;;;;;;5104793;28;20284;-63
2021/09/12 01:17:05;;;;;;;4.90;2.40;;;;;;;;;;5119740;28;20215;-63
2021/09/12 01:19:33;;;;;;;3.83;2.30;;;;;;;;;;5121776;28;20287;-63
2021/09/12 01:22:02;;;;;;;3.77;2.57;;;;;;;;;;5117074;28;20197;-63
2021/09/12 01:24:32;;;;;;;2.50;2.30;;;;;;;;;;5118532;28;20220;-63
2021/09/12 01:27:00;;;;;;;3.03;2.77;;;;;;;;;;5121798;28;20283;-63
2021/09/12 01:29:28;;;;;;;3.03;2.33;;;;;;;;;;5119961;28;20208;-63
2021/09/12 01:31:56;;;;;;;2.13;2.03;;;;;;;;;;5121566;28;20208;-63
2021/09/12 01:34:24;;;;;;;5.73;2.30;;;;;;;;;;5107672;27;20591;-63
2021/09/12 01:36:52;;;;;;;3.60;2.50;;;;;;;;;;5119548;27;20204;-63
2021/09/12 01:39:20;;;;;;;2.67;2.07;;;;;;;;;;5117527;28;20584;-63
2021/09/12 01:41:49;;;;;;;2.17;2.00;;;;;;;;;;5120144;28;20211;-63
2021/09/12 01:44:23;;;;;;;2.50;2.30;;;;;;;;;;5120763;27;20221;-63
2021/09/12 01:46:52;;;;;;;2.80;1.90;;;;;;;;;;5119410;28;20669;-63
2021/09/12 01:49:20;;;;;;;2.67;2.17;;;;;;;;;;5121288;28;20280;-63
2021/09/12 01:51:48;;;;;;;3.30;2.50;;;;;;;;;;5120607;28;20205;-63
2021/09/12 01:54:16;;;;;;;2.50;2.30;;;;;;;;;;5114572;28;20213;-63
2021/09/12 01:56:44;;;;;;;2.70;2.50;;;;;;;;;;5113120;27;20212;-63
2021/09/12 01:59:14;;;;;;;3.37;2.47;;;;;;;;;;5114832;28;20231;-63
2021/09/12 02:01:42;;;;;;;4.53;2.60;;;;;;;;;;5120428;28;20650;-64
2021/09/12 02:04:11;;;;;;;3.10;2.47;;;;;;;;;;5121677;27;20250;-63
2021/09/12 02:06:39;;;;;;;2.47;2.27;;;;;;;;;;5113247;28;20197;-65
2021/09/12 02:09:07;;;;;;;2.50;2.20;;;;;;;;;;5119917;28;20197;-63
2021/09/12 02:11:35;;;;;;;4.33;2.63;;;;;;;;;;5120846;28;20261;-65
2021/09/12 02:14:03;;;;;;;2.60;2.40;;;;;;;;;;5119583;28;20239;-65
2021/09/12 02:16:32;;;;;;;2.40;2.30;;;;;;;;;;5116197;28;20232;-65
2021/09/12 02:19:00;;;;;;;3.63;2.30;;;;;;;;;;5119798;28;20579;-65
2021/09/12 02:21:28;;;;;;;2.63;2.40;;;;;;;;;;5119967;28;20201;-65
2021/09/12 02:23:56;;;;;;;2.87;2.57;;;;;;;;;;5104663;28;20220;-65
2021/09/12 02:26:24;;;;;;;3.83;2.67;;;;;;;;;;5111080;27;20229;-65
2021/09/12 02:28:52;;;;;;;4.67;3.40;;;;;;;;;;5119343;28;20690;-65
2021/09/12 02:31:20;;;;;;;3.30;3.00;;;;;;;;;;5117983;28;20667;-65
2021/09/12 02:33:50;;;;;;;4.57;3.00;;;;;;;;;;5119227;28;20230;-64
2021/09/12 02:36:18;;;;;;;3.10;2.73;;;;;;;;;;5113846;27;20258;-64
2021/09/12 02:38:46;;;;;;;4.97;3.83;;;;;;;;;;5117131;28;20336;-64
2021/09/12 02:41:14;;;;;;;3.70;3.10;;;;;;;;;;5113214;28;20211;-64
2021/09/12 02:43:42;;;;;;;3.67;3.00;;;;;;;;;;5117656;28;20205;-65
2021/09/12 02:46:10;;;;;;;3.47;3.17;;;;;;;;;;5111540;28;20556;-64
2021/09/12 02:48:38;;;;;;;4.77;3.10;;;;;;;;;;5111167;28;20197;-65
2021/09/12 02:51:07;;;;;;;3.93;3.57;;;;;;;;;;5119899;28;20201;-64
2021/09/12 02:53:35;;;;;;;3.43;2.70;;;;;;;;;;5112793;27;20201;-64
2021/09/12 02:56:03;;;;;;;5.00;3.33;;;;;;;;;;5119191;28;20197;-64
2021/09/12 02:58:31;;;;;;;3.67;3.07;;;;;;;;;;5118471;27;20692;-64
2021/09/12 03:00:59;;;;;;;4.10;3.57;;;;;;;;;;5115104;28;20204;-64
2021/09/12 03:03:28;;;;;;;5.63;3.60;;;;;;;;;;5119416;27;20205;-64
2021/09/12 03:05:56;;;;;;;5.67;3.60;;;;;;;;;;5111575;28;20197;-64
2021/09/12 03:08:26;;;;;;;6.67;3.83;;;;;;;;;;5119530;28;20283;-65
2021/09/12 03:10:54;;;;;;;4.33;3.40;;;;;;;;;;5116297;28;20637;-64
2021/09/12 03:13:22;;;;;;;6.60;4.13;;;;;;;;;;5118505;28;20203;-64
2021/09/12 03:15:50;;;;;;;6.03;3.97;;;;;;;;;;5118184;28;20279;-64
2021/09/12 03:18:18;;;;;;;5.03;3.10;;;;;;;;;;5115718;27;20673;-64
2021/09/12 03:20:46;;;;;;;5.47;3.73;;;;;;;;;;5117542;28;20634;-64
2021/09/12 03:23:14;;;;;;;5.60;3.53;;;;;;;;;;5109188;28;20197;-65
2021/09/12 03:25:43;;;;;;;5.27;3.43;;;;;;;;;;5103864;28;20261;-64
2021/09/12 03:28:11;;;;;;;5.47;3.20;;;;;;;;;;5111482;28;20209;-63
2021/09/12 03:30:39;;;;;;;4.03;3.73;;;;;;;;;;5118697;28;20262;-63
2021/09/12 03:33:07;;;;;;;6.07;3.33;;;;;;;;;;5107460;28;20198;-65
2021/09/12 03:35:35;;;;;;;5.17;3.60;;;;;;;;;;5107408;28;20300;-63
2021/09/12 03:38:03;;;;;;;6.60;3.70;;;;;;;;;;5105674;28;20233;-62
2021/09/12 03:40:31;;;;;;;7.53;4.47;;;;;;;;;;5110701;28;20211;-62
2021/09/12 03:43:01;;;;;;;5.47;3.80;;;;;;;;;;5116577;28;20265;-63
2021/09/12 03:45:29;;;;;;;5.47;3.77;;;;;;;;;;5116067;28;20237;-63
2021/09/12 03:47:57;;;;;;;3.13;2.87;;;;;;;;;;5113866;28;20205;-62
2021/09/12 03:50:25;;;;;;;4.03;3.60;;;;;;;;;;5116892;28;20228;-63
2021/09/12 03:52:53;;;;;;;4.73;3.13;;;;;;;;;;5112512;28;20287;-62
2021/09/12 03:55:21;;;;;;;6.33;4.63;;;;;;;;;;5117692;28;20220;-62
2021/09/12 03:57:49;;;;;;;5.03;3.20;;;;;;;;;;5114876;28;20323;-64
2021/09/12 04:00:19;;;;;;;4.83;3.43;;;;;;;;;;5112838;28;20307;-65
2021/09/12 04:02:47;;;;;;;8.50;3.70;;;;;;;;;;5117267;28;20200;-65
2021/09/12 04:05:16;;;;;;;4.60;4.00;;;;;;;;;;5118618;28;20267;-63
2021/09/12 04:07:44;;;;;;;3.50;3.20;;;;;;;;;;5116215;28;20197;-65
2021/09/12 04:10:12;;;;;;;4.10;3.53;;;;;;;;;;5114478;28;20276;-64
2021/09/12 04:12:40;;;;;;;5.57;4.57;;;;;;;;;;5115568;28;20292;-65
2021/09/12 04:15:08;;;;;;;6.47;4.37;;;;;;;;;;5109137;28;20322;-64
2021/09/12 04:17:38;;;;;;;6.73;3.37;;;;;;;;;;5104440;28;20208;-64
2021/09/12 04:20:06;;;;;;;5.40;3.67;;;;;;;;;;5118694;28;20228;-64
2021/09/12 04:22:35;;;;;;;4.13;3.63;;;;;;;;;;5113198;28;20198;-64
2021/09/12 04:25:04;;;;;;;4.83;3.90;;;;;;;;;;5109288;28;20322;-65
2021/09/12 04:27:32;;;;;;;5.57;3.90;;;;;;;;;;5117496;28;20288;-64
2021/09/12 04:30:00;;;;;;;6.60;3.53;;;;;;;;;;5118399;28;20283;-64
2021/09/12 04:32:28;;;;;;;6.97;4.50;;;;;;;;;;5116687;28;20201;-64
2021/09/12 04:34:57;;;;;;;5.57;3.93;;;;;;;;;;5114392;28;20699;-64
2021/09/12 04:37:25;;;;;;;6.77;4.03;;;;;;;;;;5106211;28;20209;-64
2021/09/12 04:39:53;;;;;;;7.33;4.40;;;;;;;;;;5117223;28;20229;-65
2021/09/12 04:42:21;;;;;;;5.07;3.97;;;;;;;;;;5118102;28;20201;-64
2021/09/12 04:44:49;;;;;;;9.10;3.53;;;;;;;;;;5115411;28;20220;-64
2021/09/12 04:47:17;;;;;;;3.60;3.30;;;;;;;;;;5117734;28;20205;-64
2021/09/12 04:49:45;;;;;;;5.17;3.50;;;;;;;;;;5115424;28;20200;-64
2021/09/12 04:52:15;;;;;;;3.90;3.50;;;;;;;;;;5116469;28;20731;-64
2021/09/12 04:54:43;;;;;;;4.80;3.50;;;;;;;;;;5108020;28;20222;-64
2021/09/12 04:57:11;;;;;;;8.17;3.70;;;;;;;;;;5117801;28;20212;-64
2021/09/12 04:59:39;;;;;;;3.97;3.57;;;;;;;;;;5112011;28;20221;-64
2021/09/12 05:02:07;;;;;;;4.70;3.53;;;;;;;;;;5117818;28;20208;-64
2021/09/12 05:04:35;;;;;;;4.90;3.60;;;;;;;;;;5113665;28;20220;-64
2021/09/12 05:07:03;;;;;;;7.73;3.90;;;;;;;;;;5117197;28;20291;-64
2021/09/12 05:09:33;;;;;;;4.60;3.33;;;;;;;;;;5114237;28;20197;-64
2021/09/12 05:12:01;;;;;;;6.07;4.00;;;;;;;;;;5117373;28;20303;-64
2021/09/12 05:14:29;;;;;;;6.07;3.80;;;;;;;;;;5115278;28;20311;-64
2021/09/12 05:16:57;;;;;;;4.67;3.50;;;;;;;;;;5111422;28;20234;-64
2021/09/12 05:19:25;;;;;;;5.47;4.07;;;;;;;;;;5117833;28;20225;-64
2021/09/12 05:21:53;;;;;;;6.83;3.80;;;;;;;;;;5117033;28;20289;-64
2021/09/12 05:24:21;;;;;;;3.70;3.27;;;;;;;;;;5114312;28;20221;-65
2021/09/12 05:26:50;;;;;;;4.87;3.83;;;;;;;;;;5118059;28;20200;-64
2021/09/12 05:29:18;;;;;;;6.13;3.47;;;;;;;;;;5113126;28;20208;-64
2021/09/12 05:31:46;;;;;;;4.07;3.20;;;;;;;;;;5112685;28;20240;-64
2021/09/12 05:34:14;;;;;;;5.77;3.97;;;;;;;;;;5102785;28;20221;-64
2021/09/12 05:36:42;;;;;;;6.30;4.03;;;;;;;;;;5117495;28;20686;-64
2021/09/12 05:39:10;;;;;;;5.30;4.50;;;;;;;;;;5116721;28;20205;-64
2021/09/12 05:41:38;;;;;;;5.33;4.13;;;;;;;;;;5117151;28;20660;-64
2021/09/12 05:44:08;;;;;;;4.80;4.30;;;;;;;;;;5107000;28;20231;-64
2021/09/12 05:46:36;;;;;;;6.03;4.00;;;;;;;;;;5105298;28;20229;-64
2021/09/12 05:49:04;;;;;;;7.40;3.90;;;;;;;;;;5104374;28;20268;-64
2021/09/12 05:51:32;;;;;;;9.33;4.93;;;;;;;;;;5104468;28;20558;-64
2021/09/12 05:54:00;;;;;;;6.47;3.87;;;;;;;;;;5104039;28;20280;-65
2021/09/12 05:56:28;;;;;;;6.27;4.13;;;;;;;;;;5117277;28;20204;-65
2021/09/12 05:58:56;;;;;;;5.23;4.20;;;;;;;;;;5116399;28;20197;-65
2021/09/12 06:01:26;;;;;;;4.73;3.90;;;;;;;;;;5117152;28;20260;-64
2021/09/12 06:03:54;;;;;;;5.90;4.40;;;;;;;;;;5118643;28;20220;-65
2021/09/12 06:06:22;;;;;;;5.87;4.30;;;;;;;;;;5119786;28;20550;-64
2021/09/12 06:08:50;;;;;;;6.87;4.63;;;;;;;;;;5119570;28;20201;-65
2021/09/12 06:11:18;;;;;;;6.83;4.13;;;;;;;;;;5109634;28;20285;-66
2021/09/12 06:13:46;;;;;;;6.70;4.50;;;;;;;;;;5108167;27;20300;-65
2021/09/12 06:16:15;;;;;;;6.53;4.97;;;;;;;;;;5108575;28;20269;-65
2021/09/12 06:18:44;;;;;;;6.47;4.37;;;;;;;;;;5110704;27;20205;-65
2021/09/12 06:21:12;;;;;;;4.73;3.93;;;;;;;;;;5113373;28;20213;-73
2021/09/12 06:23:40;;;;;;;5.33;4.67;;;;;;;;;;5111317;28;22043;-65
2021/09/12 06:26:08;;;;;;;4.73;4.07;;;;;;;;;;5112692;28;20229;-64
2021/09/12 06:28:36;;;;;;;6.10;4.33;;;;;;;;;;5115527;28;20201;-64
2021/09/12 06:31:04;;;;;;;5.63;4.33;;;;;;;;;;5119924;28;20208;-64
2021/09/12 06:33:32;;;;;;;5.13;4.40;;;;;;;;;;5118809;28;20619;-63
2021/09/12 06:36:02;;;;;;;4.30;3.90;;;;;;;;;;5107030;28;20217;-63
2021/09/12 06:38:30;;;;;;;5.33;4.03;;;;;;;;;;5117567;28;20235;-63
2021/09/12 06:40:58;;;;;;;7.23;4.00;;;;;;;;;;5116579;28;20288;-64
2021/09/12 06:43:26;;;;;;;8.67;4.17;;;;;;;;;;5115630;28;20213;-63
2021/09/12 06:45:54;;;;;;;7.53;5.03;;;;;;;;;;5112654;28;20272;-62
2021/09/12 06:48:23;;;;;;;5.50;4.27;;;;;;;;;;5119412;28;20287;-64
2021/09/12 06:50:53;;;;;;;5.37;4.87;;;;;;;;;;5118496;28;20260;-63
2021/09/12 06:53:22;;;;;;;4.43;4.03;;;;;;;;;;5119168;28;20568;-64
2021/09/12 06:55:50;;;;;;;6.30;5.00;;;;;;;;;;5112623;28;20647;-64
2021/09/12 06:58:18;;;;;;;7.97;4.87;;;;;;;;;;5117424;28;20205;-65
2021/09/12 07:00:46;;;;;;;6.37;5.77;;;;;;;;;;5117764;28;20234;-64
2021/09/12 07:03:15;;;;;;;5.97;5.37;;;;;;;;;;5116084;28;20220;-64
2021/09/12 07:05:43;;;;;;;5.77;4.83;;;;;;;;;;5112090;28;20228;-64
2021/09/12 07:08:12;;;;;;;6.97;5.60;;;;;;;;;;5111607;28;20203;-64
2021/09/12 07:10:41;;;;;;;7.30;4.20;;;;;;;;;;5116237;28;20199;-64
2021/09/12 07:13:09;;;;;;;5.83;4.60;;;;;;;;;;5115719;28;20639;-64
2021/09/12 07:15:37;;;;;;;6.27;4.50;;;;;;;;;;5117358;28;20216;-64
2021/09/12 07:18:05;;;;;;;5.40;4.90;;;;;;;;;;5118015;28;20200;-64
2021/09/12 07:20:33;;;;;;;7.20;4.03;;;;;;;;;;5118723;28;20316;-64
2021/09/12 07:23:02;;;;;;;6.73;4.33;;;;;;;;;;5117766;28;20287;-64
2021/09/12 07:25:30;;;;;;;4.53;3.47;;;;;;;;;;5109554;28;20242;-63
2021/09/12 07:28:00;;;;;;;4.07;3.67;;;;;;;;;;5117479;28;20284;-64
2021/09/12 07:30:28;;;;;;;6.07;4.43;;;;;;;;;;5115352;28;20264;-63
2021/09/12 07:32:56;;;;;;;5.53;3.97;;;;;;;;;;5118040;28;20566;-63
2021/09/12 07:35:24;;;;;;;7.17;4.57;;;;;;;;;;5111930;28;20300;-62
2021/09/12 07:37:52;;;;;;;4.13;3.77;;;;;;;;;;5112003;27;20204;-64
2021/09/12 07:40:20;;;;;;;6.63;4.23;;;;;;;;;;5110723;28;20730;-63
2021/09/12 07:42:49;;;;;;;4.53;3.90;;;;;;;;;;5118200;28;20288;-64
2021/09/12 07:45:19;;;;;;;7.23;4.80;;;;;;;;;;5109465;28;20236;-64
2021/09/12 07:47:47;;;;;;;6.43;4.07;;;;;;;;;;5108645;28;20620;-64
2021/09/12 07:50:15;;;;;;;6.73;3.80;;;;;;;;;;5111858;28;20209;-64
2021/09/12 07:52:43;;;;;;;4.93;3.67;;;;;;;;;;5110942;28;20276;-63
2021/09/12 07:55:11;;;;;;;6.60;3.17;;;;;;;;;;5106885;28;20228;-62
2021/09/12 07:57:39;;;;;;;3.43;2.90;;;;;;;;;;5112763;28;20274;-62
2021/09/12 08:00:08;;;;;;;5.17;3.20;;;;;;;;;;5111861;28;20567;-64
2021/09/12 08:02:38;;;;;;;5.80;3.53;;;;;;;;;;5115813;28;20228;-63
2021/09/12 08:05:07;;;;;;;3.33;3.03;;;;;;;;;;5114648;28;20217;-63
2021/09/12 08:07:35;;;;;;;3.87;3.27;;;;;;;;;;5113310;28;20661;-63
2021/09/12 08:10:03;;;;;;;4.23;3.10;;;;;;;;;;5122388;27;20232;-64
2021/09/12 08:12:32;;;;;;;3.20;2.90;;;;;;;;;;5113818;27;20642;-63
2021/09/12 08:15:00;;;;;;;5.67;3.37;;;;;;;;;;5119525;27;20723;-64
2021/09/12 08:17:28;;;;;;;4.40;4.00;;;;;;;;;;5124477;27;20213;-64
2021/09/12 08:19:57;;;;;;;5.63;3.60;;;;;;;;;;5122669;27;20197;-64
2021/09/12 08:22:25;;;;;;;4.47;3.23;;;;;;;;;;5123609;27;20704;-64
2021/09/12 08:24:54;;;;;;;3.57;3.27;;;;;;;;;;5115337;27;20227;-64
2021/09/12 08:27:22;;;;;;;5.90;3.37;;;;;;;;;;5118510;27;20202;-64
2021/09/12 08:29:50;;;;;;;3.77;3.33;;;;;;;;;;5120597;27;20283;-64
2021/09/12 08:32:18;;;;;;;4.10;3.30;;;;;;;;;;5113235;28;20193;-64
2021/09/12 08:34:46;;;;;;;3.37;3.07;;;;;;;;;;5112435;28;20212;-63
2021/09/12 08:37:15;;;;;;;3.50;3.20;;;;;;;;;;5117576;28;20213;-64
2021/09/12 08:39:45;;;;;;;3.97;3.47;;;;;;;;;;5115591;28;20199;-63
2021/09/12 08:42:15;;;;;;;3.30;3.00;;;;;;;;;;5116907;28;20704;-63
2021/09/12 08:44:45;;;;;;;4.93;3.00;;;;;;;;;;5115266;28;20219;-64
2021/09/12 08:47:13;;;;;;;6.30;3.10;;;;;;;;;;5116548;28;20211;-64
2021/09/12 08:49:41;;;;;;;3.13;2.83;;;;;;;;;;5115751;28;20268;-64
2021/09/12 08:52:09;;;;;;;3.63;2.90;;;;;;;;;;5117140;28;20200;-64
2021/09/12 08:54:39;;;;;;;4.20;2.73;;;;;;;;;;5113448;28;20218;-64
2021/09/12 08:57:07;;;;;;;2.93;2.73;;;;;;;;;;5115945;28;20204;-72
2021/09/12 08:59:35;;;;;;;3.57;2.60;;;;;;;;;;5116147;28;20288;-72
2021/09/12 09:02:04;;;;;;;4.47;3.33;;;;;;;;;;5115976;28;20316;-72
2021/09/12 09:04:33;;;;;;;2.57;2.37;;;;;;;;;;5116336;28;20224;-72
2021/09/12 09:07:05;;;;;;;6.27;2.80;;;;;;;;;;5125555;28;20200;-73
2021/09/12 09:09:45;;;;;;;2.70;2.47;;;;;;;;;;5112415;28;20202;-72
2021/09/12 09:12:20;;;;;;;3.10;2.90;;;;;;;;;;5115230;28;20257;-73
2021/09/12 09:15:00;;;;;;;4.00;3.10;;;;;;;;;;5115250;28;20228;-72
2021/09/12 09:17:28;;;;;;;3.47;3.17;;;;;;;;;;5118167;28;20211;-71
2021/09/12 09:19:57;;;;;;;3.83;3.43;;;;;;;;;;5123927;28;20207;-72
2021/09/12 09:22:31;;;;;;;4.00;2.87;;;;;;;;;;5119434;28;20680;-73
2021/09/12 09:25:07;;;;;;;5.87;2.73;;;;;;;;;;5122975;28;20319;-73
2021/09/12 09:27:50;;;;;;;2.87;2.67;;;;;;;;;;5113279;28;20668;-74
2021/09/12 09:30:18;;;;;;;3.13;2.83;;;;;;;;;;5113891;28;20685;-70
2021/09/12 09:32:46;;;;;;;3.83;3.20;;;;;;;;;;5122697;28;20194;-70
2021/09/12 09:35:21;;;;;;;3.80;3.30;;;;;;;;;;5116146;28;20272;-71
2021/09/12 09:37:49;;;;;;;4.87;3.40;;;;;;;;;;5128550;27;20198;-67
2021/09/12 09:40:19;;;;;;;4.10;3.00;;;;;;;;;;5132944;27;20222;-66
2021/09/12 09:42:48;;;;;;;4.83;4.23;;;;;;;;;;5122575;27;20216;-67
2021/09/12 09:45:17;;;;;;;3.77;2.77;;;;;;;;;;5125155;27;20227;-69
2021/09/12 09:47:46;;;;;;;5.07;3.30;;;;;;;;;;5122595;27;20287;-69
2021/09/12 09:50:16;;;;;;;2.93;2.67;;;;;;;;;;5118764;27;20531;-69
2021/09/12 09:52:46;;;;;;;3.37;3.00;;;;;;;;;;5127412;27;20192;-69
2021/09/12 09:55:16;;;;;;;4.60;3.17;;;;;;;;;;5121651;27;20273;-69
2021/09/12 09:57:45;;;;;;;3.20;2.97;;;;;;;;;;5113007;28;20205;-68
2021/09/12 10:00:14;;;;;;;3.07;2.73;;;;;;;;;;5120905;27;20295;-68
2021/09/12 10:02:42;;;;;;;3.03;2.70;;;;;;;;;;5118231;27;20707;-68
2021/09/12 10:05:11;;;;;;;3.93;2.73;;;;;;;;;;5121424;27;20260;-68
2021/09/12 10:07:40;;;;;;;4.37;3.60;;;;;;;;;;5129483;27;20322;-68
2021/09/12 10:10:09;;;;;;;4.53;3.57;;;;;;;;;;5119667;27;20637;-69
2021/09/12 10:12:44;;;;;;;4.10;2.73;;;;;;;;;;5115354;28;20201;-69
2021/09/12 10:15:17;;;;;;;3.80;2.83;;;;;;;;;;5111445;27;20679;-67
2021/09/12 10:17:46;;;;;;;3.83;2.90;;;;;;;;;;5118732;28;20700;-68
2021/09/12 10:20:15;;;;;;;2.57;2.37;;;;;;;;;;5117031;28;20204;-68
2021/09/12 10:22:50;;;;;;;3.13;2.70;;;;;;;;;;5114970;28;20312;-69
2021/09/12 10:25:20;;;;;;;4.07;2.77;;;;;;;;;;5112072;28;20240;-67
2021/09/12 10:27:49;;;;;;;7.70;2.90;;;;;;;;;;5119501;28;20295;-68
2021/09/12 10:30:29;;;;;;;3.03;2.77;;;;;;;;;;5118799;28;20200;-68
2021/09/12 10:33:20;;;;;;;2.60;2.40;;;;;;;;;;5115748;28;20206;-68
2021/09/12 10:35:53;;;;;;;2.47;2.27;;;;;;;;;;5113255;28;20270;-69
2021/09/12 10:38:24;;;;;;;5.20;2.83;;;;;;;;;;5119961;28;20211;-70
2021/09/12 10:41:12;;;;;;;6.13;2.63;;;;;;;;;;5115873;28;20712;-68
2021/09/12 10:43:47;;;;;;;2.93;2.73;;;;;;;;;;5113522;27;20303;-68
2021/09/12 10:46:25;;;;;;;2.40;2.20;;;;;;;;;;5112603;28;20212;-67
2021/09/12 10:49:09;;;;;;;3.40;2.50;;;;;;;;;;5106358;28;20192;-70
2021/09/12 10:51:38;;;;;;;3.20;3.00;;;;;;;;;;5119109;27;20298;-68
2021/09/12 10:54:06;;;;;;;2.77;2.57;;;;;;;;;;5120794;27;20217;-68
2021/09/12 10:56:35;;;;;;;3.17;2.20;;;;;;;;;;5118387;27;20572;-72
2021/09/12 10:59:05;;;;;;;3.67;2.60;;;;;;;;;;5117548;28;20212;-70
2021/09/12 11:01:35;;;;;;;3.40;3.10;;;;;;;;;;5116849;27;20197;-69
2021/09/12 11:04:04;;;;;;;4.60;2.40;;;;;;;;;;5121252;27;20288;-69
2021/09/12 11:06:33;;;;;;;2.50;2.30;;;;;;;;;;5120828;27;20732;-78
2021/09/12 11:09:03;;;;;;;2.57;2.37;;;;;;;;;;5121877;27;20560;-66
2021/09/12 11:11:45;;;;;;;3.10;1.97;;;;;;;;;;5028314;28;20213;-65
2021/09/12 11:14:17;;;;;;;2.60;2.17;;;;;;;;;;5027949;28;20214;-65
2021/09/12 11:16:46;;;;;;;4.87;2.47;;;;;;;;;;5025676;28;20214;-64
2021/09/12 11:19:15;;;;;;;3.07;2.73;;;;;;;;;;5029133;28;20209;-64
2021/09/12 11:21:44;;;;;;;2.80;1.90;;;;;;;;;;5030361;28;20223;-64
2021/09/12 11:24:13;;;;;;;2.93;2.50;;;;;;;;;;5032528;28;20238;-63
2021/09/12 11:26:41;;;;;;;2.27;2.13;;;;;;;;;;5030934;28;20697;-62
2021/09/12 11:29:11;;;;;;;4.13;2.70;;;;;;;;;;5026909;28;20817;-62
2021/09/12 11:31:40;;;;;;;3.20;2.90;;;;;;;;;;5028289;28;20204;-62
2021/09/12 11:34:09;;;;;;;2.50;2.27;;;;;;;;;;5030916;28;20223;-62
2021/09/12 11:36:42;;;;;;;4.37;2.43;;;;;;;;;;5082718;28;20201;-62
2021/09/12 11:39:10;;;;;;;2.57;2.30;;;;;;;;;;5111162;28;20202;-63
2021/09/12 11:41:40;;;;;;;2.63;2.40;;;;;;;;;;5116362;27;20537;-63
2021/09/12 11:44:08;;;;;;;2.40;2.20;;;;;;;;;;5120147;27;20221;-63
2021/09/12 11:46:42;;;;;;;2.47;2.30;;;;;;;;;;5116070;27;20197;-63
2021/09/12 11:49:12;;;;;;;4.73;2.00;;;;;;;;;;5113580;28;20227;-63
2021/09/12 11:51:41;;;;;;;4.77;2.13;;;;;;;;;;5116341;28;20215;-63
2021/09/12 11:54:11;;;;;;;2.57;2.10;;;;;;;;;;5115848;28;20226;-62
2021/09/12 11:56:45;;;;;;;3.07;2.13;;;;;;;;;;5111735;28;20201;-63
2021/09/12 11:59:15;;;;;;;2.10;2.00;;;;;;;;;;5114552;28;20210;-63
2021/09/12 12:01:43;;;;;;;2.37;2.13;;;;;;;;;;5116812;28;20221;-63
2021/09/12 12:04:13;;;;;;;2.30;2.10;;;;;;;;;;5120533;27;20236;-63
2021/09/12 12:06:45;;;;;;;1.77;1.60;;;;;;;;;;5116831;28;20541;-63
2021/09/12 12:09:15;;;;;;;2.77;2.17;;;;;;;;;;5116270;28;20557;-63
2021/09/12 12:11:45;;;;;;;1.90;1.70;;;;;;;;;;5115234;28;20210;-64
2021/09/12 12:14:20;;;;;;;11.57;7.87;;;;;;;;;;5113268;28;20250;-63
2021/09/12 12:16:49;;;;;;;19.03;12.63;;;;;;;;;;5111025;28;20206;-64
2021/09/12 12:19:19;;;;;;;4.10;3.70;;;;;;;;;;5112619;28;20237;-63
2021/09/12 12:21:48;;;;;;;2.10;1.90;;;;;;;;;;5111881;28;20714;-63
2021/09/12 12:24:17;;;;;;;3.03;1.90;;;;;;;;;;5115760;28;20691;-64
2021/09/12 12:26:47;;;;;;;2.13;1.90;;;;;;;;;;5116983;28;20215;-63
2021/09/12 12:29:27;;;;;;;2.57;2.10;;;;;;;;;;5111338;28;20639;-63
2021/09/12 12:31:56;;;;;;;1.97;1.80;;;;;;;;;;5114740;28;20279;-63
2021/09/12 12:34:38;;;;;;;2.30;1.90;;;;;;;;;;5116371;28;20228;-63
2021/09/12 12:37:07;;;;;;;1.87;1.50;;;;;;;;;;5114669;28;20210;-64
2021/09/12 12:39:35;;;;;;;1.77;1.67;;;;;;;;;;5115033;28;20205;-64
2021/09/12 12:42:03;;;;;;;2.43;1.60;;;;;;;;;;5111409;28;20204;-64
2021/09/12 12:44:39;;;;;;;2.17;1.50;;;;;;;;;;5115544;28;20227;-63
2021/09/12 12:47:07;;;;;;;1.50;1.40;;;;;;;;;;5111534;28;20623;-64
2021/09/12 12:49:35;;;;;;;1.77;1.67;;;;;;;;;;5113336;28;20215;-63
2021/09/12 12:52:12;;;;;;;2.73;2.10;;;;;;;;;;5113643;28;20207;-63
2021/09/12 12:54:41;;;;;;;2.00;1.60;;;;;;;;;;5116334;28;20223;-63
2021/09/12 12:57:11;;;;;;;5.90;2.93;;;;;;;;;;5117193;28;20209;-63
2021/09/12 12:59:47;;;;;;;5.47;3.53;;;;;;;;;;5110150;28;20376;-63
2021/09/12 13:02:15;;;;;;;2.93;1.80;;;;;;;;;;5112288;28;20202;-63
2021/09/12 13:04:43;;;;;;;2.10;1.63;;;;;;;;;;5115741;28;20227;-63
2021/09/12 13:07:13;;;;;;;1.37;1.10;;;;;;;;;;5117513;28;20677;-63
2021/09/12 13:09:42;;;;;;;1.10;1.10;;;;;;;;;;5116163;28;20289;-63
2021/09/12 13:12:10;;;;;;;3.97;1.50;;;;;;;;;;5116850;28;20705;-63
2021/09/12 13:14:41;;;;;;;1.73;1.53;;;;;;;;;;5120983;28;20229;-63
2021/09/12 13:17:09;;;;;;;1.53;1.33;;;;;;;;;;5114108;28;20586;-63
2021/09/12 13:19:37;;;;;;;2.07;1.70;;;;;;;;;;5113811;28;20238;-63
2021/09/12 13:22:05;;;;;;;2.03;1.90;;;;;;;;;;5119099;28;20206;-63
2021/09/12 13:24:34;;;;;;;1.90;1.30;;;;;;;;;;5117734;28;20238;-63
2021/09/12 13:27:03;;;;;;;1.40;1.30;;;;;;;;;;5119410;28;20691;-63
2021/09/12 13:29:31;;;;;;;3.93;1.73;;;;;;;;;;5114960;28;20588;-63
2021/09/12 13:31:59;;;;;;;3.20;1.60;;;;;;;;;;5119962;28;20280;-63
2021/09/12 13:34:27;;;;;;;1.40;1.30;;;;;;;;;;5120064;28;20287;-63
2021/09/12 13:36:55;;;;;;;2.13;1.50;;;;;;;;;;5120885;28;20292;-64
2021/09/12 13:39:23;;;;;;;2.43;1.50;;;;;;;;;;5118344;28;20272;-63
2021/09/12 13:41:52;;;;;;;2.03;1.43;;;;;;;;;;5116061;28;20228;-63
2021/09/12 13:44:20;;;;;;;1.47;1.37;;;;;;;;;;5118092;28;20225;-63
2021/09/12 13:46:50;;;;;;;1.60;1.50;;;;;;;;;;5120488;28;20206;-63
2021/09/12 13:49:18;;;;;;;1.47;1.37;;;;;;;;;;5117888;28;20201;-64
2021/09/12 13:51:46;;;;;;;1.30;1.20;;;;;;;;;;5119549;28;20237;-63
2021/09/12 13:54:14;;;;;;;1.60;1.50;;;;;;;;;;5112865;28;20220;-63
2021/09/12 13:56:42;;;;;;;1.47;1.37;;;;;;;;;;5113138;28;20299;-63
2021/09/12 13:59:12;;;;;;;2.27;1.50;;;;;;;;;;5119532;28;20281;-64
2021/09/12 14:01:40;;;;;;;1.43;1.33;;;;;;;;;;5116658;28;20660;-64
2021/09/12 14:04:08;;;;;;;1.70;1.60;;;;;;;;;;5115943;28;20225;-63
2021/09/12 14:06:36;;;;;;;3.20;1.80;;;;;;;;;;5118470;28;20657;-63
2021/09/12 14:09:05;;;;;;;2.60;1.43;;;;;;;;;;5120459;28;20248;-63
2021/09/12 14:11:33;;;;;;;3.30;1.77;;;;;;;;;;5118108;28;20206;-62
2021/09/12 14:14:01;;;;;;;1.47;1.37;;;;;;;;;;5112147;28;20902;-61
2021/09/12 14:16:31;;;;;;;1.47;1.37;;;;;;;;;;5118887;28;20575;-63
2021/09/12 14:18:59;;;;;;;1.67;1.57;;;;;;;;;;5119082;28;20200;-62
2021/09/12 14:21:27;;;;;;;2.40;1.33;;;;;;;;;;5110430;27;20201;-63
2021/09/12 14:23:55;;;;;;;2.60;1.50;;;;;;;;;;5117672;28;20238;-62
2021/09/12 14:26:23;;;;;;;1.53;1.43;;;;;;;;;;5116505;28;20243;-64
2021/09/12 14:28:51;;;;;;;3.43;1.60;;;;;;;;;;5118819;28;20206;-63
2021/09/12 14:31:19;;;;;;;2.57;1.33;;;;;;;;;;5118012;28;20293;-62
2021/09/12 14:33:49;;;;;;;1.50;1.40;;;;;;;;;;5116704;28;20254;-64
2021/09/12 14:36:17;;;;;;;1.57;1.47;;;;;;;;;;5119326;28;20207;-64
2021/09/12 14:38:45;;;;;;;1.83;1.73;;;;;;;;;;5117373;28;20224;-64
2021/09/12 14:41:13;;;;;;;2.10;1.87;;;;;;;;;;5119293;28;20207;-62
2021/09/12 14:43:41;;;;;;;2.33;1.83;;;;;;;;;;5116196;28;20222;-62
2021/09/12 14:46:09;;;;;;;2.17;1.60;;;;;;;;;;5114273;28;20233;-62
2021/09/12 14:48:37;;;;;;;2.03;1.93;;;;;;;;;;5117909;28;20209;-64
2021/09/12 14:51:07;;;;;;;1.90;1.23;;;;;;;;;;5116990;28;20197;-64
2021/09/12 14:53:35;;;;;;;3.53;1.70;;;;;;;;;;5114104;28;20203;-63